createdAt,value
2023-05-16T00:01:48.332Z,35.27
2023-05-16T00:04:13.402Z,35.33
2023-05-16T00:06:38.411Z,35.30
2023-05-16T00:09:04.706Z,35.51
2023-05-16T00:11:29.835Z,35.69
2023-05-16T00:13:54.636Z,35.77
2023-05-16T00:16:30.237Z,35.89
2023-05-16T00:17:47.733Z,35.92
2023-05-16T00:20:19.147Z,36.18
2023-05-16T00:21:28.770Z,36.16
2023-05-16T00:23:55.118Z,36.46
2023-05-16T00:26:27.633Z,36.53
2023-05-16T00:28:52.419Z,36.68
2023-05-16T00:31:19.488Z,36.87
2023-05-16T00:33:51.277Z,37.07
2023-05-16T00:35:00.689Z,37.01
2023-05-16T00:37:25.405Z,37.23
2023-05-16T00:39:53.797Z,37.25
2023-05-16T00:42:20.824Z,37.37
2023-05-16T00:44:48.074Z,37.63
2023-05-16T00:45:58.221Z,37.50
2023-05-16T00:48:23.962Z,37.67
2023-05-16T00:50:50.664Z,37.77
2023-05-16T00:53:14.736Z,37.83
2023-05-16T00:55:42.708Z,37.87
2023-05-16T00:58:09.181Z,37.98
2023-05-16T01:00:59.855Z,38.03
2023-05-16T01:03:24.478Z,38.33
2023-05-16T01:05:51.609Z,38.41
2023-05-16T01:08:18.694Z,38.59
2023-05-16T01:13:49.180Z,38.77
2023-05-16T01:19:38.839Z,38.87
2023-05-16T01:25:47.705Z,39.21
2023-05-16T01:28:17.739Z,39.32
2023-05-16T01:30:41.739Z,39.61
2023-05-16T01:33:05.938Z,39.55
2023-05-16T01:35:32.813Z,39.56
2023-05-16T01:36:56.745Z,39.50
2023-05-16T01:39:34.433Z,39.56
2023-05-16T01:42:16.601Z,39.88
2023-05-16T01:44:59.625Z,40.01
2023-05-16T01:47:30.834Z,40.03
2023-05-16T01:51:34.736Z,40.25
2023-05-16T01:54:07.418Z,40.34
2023-05-16T01:56:39.827Z,40.45
2023-05-16T01:59:27.686Z,40.79
2023-05-16T02:01:55.718Z,40.61
2023-05-16T02:04:19.308Z,40.81
2023-05-16T02:06:44.549Z,41.12
2023-05-16T02:09:10.014Z,41.04
2023-05-16T02:11:38.880Z,41.10
2023-05-16T02:14:06.100Z,41.24
2023-05-16T02:16:31.313Z,41.49
2023-05-16T02:17:40.124Z,41.46
2023-05-16T02:20:08.813Z,41.68
2023-05-16T02:22:33.322Z,41.84
2023-05-16T02:23:45.708Z,41.92
2023-05-16T02:26:11.945Z,42.22
2023-05-16T02:28:35.915Z,42.36
2023-05-16T02:31:03.993Z,42.38
2023-05-16T02:33:29.286Z,42.53
2023-05-16T02:35:53.627Z,42.84
2023-05-16T02:40:51.763Z,42.83
2023-05-16T02:43:23.790Z,42.81
2023-05-16T02:45:49.665Z,42.82
2023-05-16T02:48:14.954Z,42.91
2023-05-16T02:50:40.674Z,42.91
2023-05-16T02:51:52.037Z,43.05
2023-05-16T02:54:18.851Z,43.13
2023-05-16T02:57:13.611Z,43.33
2023-05-16T02:59:38.869Z,43.39
2023-05-16T03:02:04.632Z,43.63
2023-05-16T03:04:32.314Z,43.75
2023-05-16T03:06:59.085Z,43.95
2023-05-16T03:09:25.205Z,44.03
2023-05-16T03:11:50.309Z,44.28
2023-05-16T03:14:16.622Z,44.54
2023-05-16T03:16:43.996Z,44.67
2023-05-16T03:19:07.821Z,45.02
2023-05-16T03:21:36.869Z,45.06
2023-05-16T03:24:04.825Z,45.35
2023-05-16T03:26:28.521Z,45.45
2023-05-16T03:28:52.426Z,45.65
2023-05-16T03:31:19.961Z,45.76
2023-05-16T03:33:46.326Z,45.47
2023-05-16T03:36:13.204Z,45.67
2023-05-16T03:38:39.119Z,45.76
2023-05-16T03:41:02.803Z,45.75
2023-05-16T03:43:30.031Z,45.74
2023-05-16T03:45:53.570Z,45.86
2023-05-16T03:48:21.160Z,45.87
2023-05-16T03:50:45.612Z,45.80
2023-05-16T03:53:11.753Z,45.68
2023-05-16T03:55:37.920Z,45.65
2023-05-16T03:58:03.576Z,45.70
2023-05-16T04:00:28.260Z,45.81
2023-05-16T04:02:53.229Z,45.93
2023-05-16T04:05:17.357Z,45.90
2023-05-16T04:07:42.853Z,46.00
2023-05-16T04:10:10.586Z,45.91
2023-05-16T04:12:39.419Z,45.94
2023-05-16T04:15:06.250Z,45.73
2023-05-16T04:17:31.598Z,45.89
2023-05-16T04:19:58.010Z,45.55
2023-05-16T04:22:42.982Z,45.30
2023-05-16T04:25:08.784Z,45.28
2023-05-16T04:26:18.294Z,45.24
2023-05-16T04:28:43.030Z,45.09
2023-05-16T04:31:08.458Z,45.18
2023-05-16T04:33:32.506Z,45.35
2023-05-16T04:35:59.131Z,45.18
2023-05-16T04:38:25.464Z,45.43
2023-05-16T04:40:53.334Z,45.44
2023-05-16T04:43:20.163Z,45.68
2023-05-16T04:45:45.067Z,45.90
2023-05-16T04:48:11.486Z,45.13
2023-05-16T04:50:36.609Z,45.12
2023-05-16T04:51:46.153Z,44.65
2023-05-16T04:54:10.296Z,44.20
2023-05-16T04:56:34.866Z,44.28
2023-05-16T04:58:58.796Z,43.84
2023-05-16T05:00:11.308Z,43.75
2023-05-16T05:01:23.092Z,43.55
2023-05-16T05:02:32.260Z,43.29
2023-05-16T05:04:57.282Z,43.32
2023-05-16T05:07:22.035Z,43.14
2023-05-16T05:08:31.087Z,42.99
2023-05-16T05:09:40.710Z,43.00
2023-05-16T05:10:50.750Z,42.84
2023-05-16T05:13:15.409Z,42.79
2023-05-16T05:15:40.030Z,42.61
2023-05-16T05:18:04.687Z,42.40
2023-05-16T05:19:15.080Z,42.26
2023-05-16T05:21:40.075Z,41.90
2023-05-16T05:22:50.727Z,41.27
2023-05-16T05:25:39.252Z,41.46
2023-05-16T05:28:05.121Z,40.94
2023-05-16T05:30:32.349Z,40.81
2023-05-16T05:31:41.826Z,40.58
2023-05-16T05:32:51.529Z,40.52
2023-05-16T05:34:00.837Z,40.36
2023-05-16T05:36:24.840Z,39.89
2023-05-16T05:38:48.746Z,39.71
2023-05-16T05:41:13.920Z,40.06
2023-05-16T05:43:38.328Z,39.64
2023-05-16T05:46:02.384Z,38.99
2023-05-16T05:48:28.173Z,39.40
2023-05-16T05:50:52.870Z,39.16
2023-05-16T05:53:16.932Z,39.08
2023-05-16T05:55:43.146Z,39.02
2023-05-16T05:56:52.982Z,39.04
2023-05-16T05:59:18.811Z,39.21
2023-05-16T06:01:44.653Z,39.25
2023-05-16T06:04:14.412Z,38.79
2023-05-16T06:06:40.330Z,38.80
2023-05-16T06:07:49.405Z,38.99
2023-05-16T06:10:17.217Z,38.74
2023-05-16T06:12:41.451Z,38.72
2023-05-16T06:15:09.974Z,38.72
2023-05-16T06:17:35.239Z,38.91
2023-05-16T06:20:00.735Z,38.79
2023-05-16T06:22:24.576Z,39.17
2023-05-16T06:24:48.686Z,39.46
2023-05-16T06:25:59.230Z,39.21
2023-05-16T06:27:09.557Z,39.58
2023-05-16T06:28:19.480Z,39.22
2023-05-16T06:30:42.938Z,39.39
2023-05-16T06:31:51.617Z,39.32
2023-05-16T06:33:01.169Z,39.44
2023-05-16T06:35:27.317Z,39.40
2023-05-16T06:37:52.255Z,39.12
2023-05-16T06:40:18.658Z,39.07
2023-05-16T06:42:42.595Z,38.26
2023-05-16T06:43:53.203Z,38.31
2023-05-16T06:46:17.456Z,38.12
2023-05-16T06:48:41.446Z,38.04
2023-05-16T06:51:06.441Z,38.44
2023-05-16T06:53:30.636Z,39.16
2023-05-16T06:55:55.287Z,38.82
2023-05-16T06:58:19.938Z,38.61
2023-05-16T07:00:43.961Z,38.25
2023-05-16T07:03:07.859Z,37.86
2023-05-16T07:04:18.011Z,37.82
2023-05-16T07:06:44.401Z,37.81
2023-05-16T07:09:11.763Z,37.77
2023-05-16T07:11:36.358Z,37.46
2023-05-16T07:12:46.223Z,37.32
2023-05-16T07:15:12.875Z,37.51
2023-05-16T07:16:22.310Z,37.50
2023-05-16T07:17:32.214Z,37.64
2023-05-16T07:19:56.895Z,37.42
2023-05-16T07:22:21.655Z,37.68
2023-05-16T07:23:30.926Z,37.83
2023-05-16T07:24:39.899Z,38.07
2023-05-16T07:27:04.655Z,38.22
2023-05-16T07:28:14.328Z,38.23
2023-05-16T07:29:23.656Z,38.22
2023-05-16T07:31:50.211Z,38.16
2023-05-16T07:34:16.956Z,37.89
2023-05-16T07:36:41.109Z,37.17
2023-05-16T07:39:05.328Z,37.36
2023-05-16T07:41:34.799Z,37.40
2023-05-16T07:44:01.001Z,37.16
2023-05-16T07:46:26.087Z,37.25
2023-05-16T07:47:35.598Z,37.33
2023-05-16T07:50:00.692Z,37.51
2023-05-16T07:52:25.528Z,37.46
2023-05-16T07:54:55.461Z,37.38
2023-05-16T07:57:22.736Z,37.43
2023-05-16T07:59:47.339Z,37.57
2023-05-16T08:02:13.196Z,37.23
2023-05-16T08:04:37.686Z,37.09
2023-05-16T08:07:05.510Z,37.11
2023-05-16T08:08:15.023Z,37.15
2023-05-16T08:10:38.589Z,37.21
2023-05-16T08:13:04.010Z,36.92
2023-05-16T08:14:13.856Z,36.62
2023-05-16T08:16:37.814Z,36.62
2023-05-16T08:17:47.799Z,36.63
2023-05-16T08:18:57.489Z,36.45
2023-05-16T08:21:23.872Z,36.29
2023-05-16T08:23:50.888Z,36.09
2023-05-16T08:25:01.054Z,36.10
2023-05-16T08:27:27.801Z,36.03
2023-05-16T08:28:36.708Z,36.09
2023-05-16T08:31:00.257Z,35.80
2023-05-16T08:32:12.474Z,35.78
2023-05-16T08:33:22.216Z,36.03
2023-05-16T08:34:49.927Z,36.00
2023-05-16T08:37:17.395Z,35.79
2023-05-16T08:39:42.703Z,35.76
2023-05-16T08:42:07.988Z,35.60
2023-05-16T08:44:33.437Z,35.56
2023-05-16T08:48:24.974Z,36.06
2023-05-16T08:51:02.631Z,37.28
2023-05-16T08:55:09.295Z,39.75
2023-05-16T08:57:25.494Z,38.91
2023-05-16T08:58:34.990Z,39.01
2023-05-16T09:01:03.347Z,38.48
2023-05-16T09:03:30.086Z,38.07
2023-05-16T09:04:41.951Z,38.47
2023-05-16T09:07:07.757Z,38.76
2023-05-16T09:09:32.470Z,39.58
2023-05-16T09:11:58.551Z,39.27
2023-05-16T09:14:23.369Z,39.62
2023-05-16T09:17:07.142Z,40.23
2023-05-16T09:18:17.519Z,39.90
2023-05-16T09:20:46.533Z,39.70
2023-05-16T09:21:56.606Z,40.20
2023-05-16T09:24:24.195Z,40.42
2023-05-16T09:26:49.249Z,40.16
2023-05-16T09:29:17.303Z,40.22
2023-05-16T09:31:50.645Z,40.03
2023-05-16T09:34:15.500Z,39.98
2023-05-16T09:35:42.552Z,39.88
2023-05-16T09:36:37.389Z,39.31
2023-05-16T09:37:48.282Z,39.55
2023-05-16T09:40:14.407Z,39.52
2023-05-16T09:42:40.393Z,39.46
2023-05-16T09:43:50.995Z,39.38
2023-05-16T09:46:20.841Z,39.59
2023-05-16T09:48:46.610Z,40.20
2023-05-16T09:51:13.955Z,40.33
2023-05-16T09:53:41.776Z,40.27
2023-05-16T09:56:11.104Z,39.64
2023-05-16T09:58:43.767Z,39.83
2023-05-16T09:59:52.643Z,39.42
2023-05-16T10:01:03.797Z,39.51
2023-05-16T10:02:12.985Z,39.22
2023-05-16T10:04:38.831Z,39.36
2023-05-16T10:05:47.797Z,39.39
2023-05-16T10:08:14.834Z,39.98
2023-05-16T10:09:25.349Z,40.30
2023-05-16T10:11:53.305Z,38.88
2023-05-16T10:14:21.681Z,38.82
2023-05-16T10:16:50.078Z,39.05
2023-05-16T10:18:00.233Z,38.47
2023-05-16T10:20:26.633Z,37.98
2023-05-16T10:22:56.453Z,37.92
2023-05-16T10:24:09.956Z,37.85
2023-05-16T10:26:56.802Z,37.30
2023-05-16T10:29:27.487Z,37.48
2023-05-16T10:32:16.202Z,37.87
2023-05-16T10:33:25.634Z,37.85
2023-05-16T10:35:52.338Z,37.99
2023-05-16T10:38:20.222Z,37.90
2023-05-16T10:40:48.089Z,37.67
2023-05-16T10:43:24.319Z,37.78
2023-05-16T10:45:55.690Z,37.91
2023-05-16T10:48:29.533Z,37.85
2023-05-16T10:50:56.821Z,37.42
2023-05-16T10:53:34.604Z,37.05
2023-05-16T10:56:05.531Z,36.91
2023-05-16T10:57:22.372Z,37.33
2023-05-16T10:58:41.454Z,37.17
2023-05-16T10:59:52.064Z,37.30
2023-05-16T11:01:14.477Z,37.42
2023-05-16T11:04:01.663Z,37.65
2023-05-16T11:05:12.893Z,37.79
2023-05-16T11:07:42.100Z,37.86
2023-05-16T11:10:30.727Z,37.93
2023-05-16T11:11:52.812Z,38.04
2023-05-16T11:14:47.038Z,38.40
2023-05-16T11:17:34.599Z,38.49
2023-05-16T11:20:11.208Z,38.58
2023-05-16T11:22:40.974Z,38.75
2023-05-16T11:25:43.339Z,38.89
2023-05-16T11:26:54.967Z,39.23
2023-05-16T11:29:20.625Z,40.10
2023-05-16T11:31:45.618Z,39.60
2023-05-16T11:34:11.152Z,39.66
2023-05-16T11:35:21.430Z,39.68
2023-05-16T11:37:46.656Z,39.56
2023-05-16T11:40:18.682Z,39.38
2023-05-16T11:42:49.904Z,39.43
2023-05-16T11:45:20.287Z,39.87
2023-05-16T11:47:51.361Z,39.80
2023-05-16T11:50:20.449Z,39.90
2023-05-16T11:54:09.616Z,40.24
2023-05-16T11:56:43.341Z,40.27
2023-05-16T11:59:11.162Z,40.11
2023-05-16T12:01:42.380Z,40.26
2023-05-16T12:05:35.530Z,40.72
2023-05-16T12:08:19.223Z,40.75
2023-05-16T12:10:49.899Z,40.78
2023-05-16T12:14:51.402Z,40.41
2023-05-16T12:17:21.980Z,40.24
2023-05-16T12:19:46.640Z,39.98
2023-05-16T12:22:20.513Z,40.14
2023-05-16T12:24:48.635Z,39.92
2023-05-16T12:27:12.996Z,39.70
2023-05-16T12:29:37.310Z,39.75
2023-05-16T12:32:05.407Z,39.54
2023-05-16T12:33:15.806Z,39.43
2023-05-16T12:35:46.794Z,39.57
2023-05-16T12:38:13.602Z,39.58
2023-05-16T12:40:39.649Z,39.63
2023-05-16T12:43:22.422Z,39.53
2023-05-16T12:45:57.907Z,39.53
2023-05-16T12:47:14.533Z,39.13
2023-05-16T12:50:01.826Z,39.23
2023-05-16T12:52:30.782Z,38.92
2023-05-16T12:55:05.649Z,38.72
2023-05-16T12:57:32.529Z,39.28
2023-05-16T12:59:58.569Z,39.16
2023-05-16T13:02:25.374Z,38.71
2023-05-16T13:03:36.486Z,38.58
2023-05-16T13:04:45.228Z,38.47
2023-05-16T13:07:08.704Z,38.33
2023-05-16T13:09:33.341Z,38.48
2023-05-16T13:11:58.691Z,38.21
2023-05-16T13:13:08.412Z,37.96
2023-05-16T13:15:32.866Z,38.04
2023-05-16T13:18:03.664Z,37.91
2023-05-16T13:20:28.898Z,37.86
2023-05-16T13:21:38.005Z,38.06
2023-05-16T13:24:02.819Z,38.33
2023-05-16T13:26:27.418Z,38.42
2023-05-16T13:28:52.785Z,38.36
2023-05-16T13:31:17.236Z,38.25
2023-05-16T13:33:43.323Z,38.31
2023-05-16T13:34:53.620Z,38.19
2023-05-16T13:36:02.658Z,38.43
2023-05-16T13:37:12.100Z,38.39
2023-05-16T13:39:37.607Z,38.74
2023-05-16T13:42:03.293Z,38.62
2023-05-16T13:44:29.972Z,38.70
2023-05-16T13:46:58.254Z,38.88
2023-05-16T13:49:23.759Z,38.96
2023-05-16T13:51:47.624Z,38.44
2023-05-16T13:54:12.405Z,38.70
2023-05-16T13:56:36.514Z,38.94
2023-05-16T13:59:06.975Z,39.13
2023-05-16T14:01:30.878Z,39.87
2023-05-16T14:02:41.652Z,39.65
2023-05-16T14:03:50.648Z,40.16
2023-05-16T14:05:01.627Z,40.54
2023-05-16T14:06:12.521Z,40.74
2023-05-16T14:08:36.313Z,40.89
2023-05-16T14:10:59.964Z,40.90
2023-05-16T14:13:24.132Z,41.51
2023-05-16T14:15:49.080Z,41.19
2023-05-16T14:18:14.657Z,40.98
2023-05-16T14:20:50.269Z,40.76
2023-05-16T14:21:59.923Z,40.84
2023-05-16T14:24:24.396Z,40.29
2023-05-16T14:26:48.213Z,40.45
2023-05-16T14:29:13.268Z,40.23
2023-05-16T14:31:38.058Z,40.38
2023-05-16T14:34:02.554Z,40.17
2023-05-16T14:36:26.920Z,39.79
2023-05-16T14:38:50.538Z,39.84
2023-05-16T14:41:16.979Z,39.76
2023-05-16T14:42:27.080Z,39.43
2023-05-16T14:44:53.385Z,39.73
2023-05-16T14:47:17.283Z,39.39
2023-05-16T14:49:41.602Z,39.34
2023-05-16T14:52:08.048Z,39.66
2023-05-16T14:54:31.926Z,39.68
2023-05-16T14:56:56.178Z,39.55
2023-05-16T14:59:20.504Z,39.51
2023-05-16T15:01:46.326Z,39.48
2023-05-16T15:04:11.419Z,39.46
2023-05-16T15:06:35.326Z,39.28
2023-05-16T15:09:11.672Z,39.31
2023-05-16T15:10:20.978Z,39.50
2023-05-16T15:12:46.081Z,39.42
2023-05-16T15:15:13.537Z,39.65
2023-05-16T15:17:39.437Z,39.63
2023-05-16T15:18:48.215Z,39.41
2023-05-16T15:19:57.673Z,39.16
2023-05-16T15:21:06.733Z,39.18
2023-05-16T15:23:31.618Z,39.36
2023-05-16T15:25:55.992Z,39.03
2023-05-16T15:28:22.586Z,39.03
2023-05-16T15:30:47.407Z,39.15
2023-05-16T15:33:12.147Z,39.15
2023-05-16T15:34:20.834Z,39.10
2023-05-16T15:35:30.621Z,39.14
2023-05-16T15:36:41.126Z,39.09
2023-05-16T15:39:07.762Z,38.69
2023-05-16T15:44:02.076Z,38.73
2023-05-16T15:46:30.903Z,38.24
2023-05-16T15:47:41.551Z,38.19
2023-05-16T15:50:07.516Z,38.33
2023-05-16T15:52:32.416Z,38.38
2023-05-16T15:53:41.573Z,38.34
2023-05-16T15:56:06.821Z,37.97
2023-05-16T15:58:32.270Z,38.07
2023-05-16T16:00:56.720Z,37.93
2023-05-16T16:03:21.648Z,37.80
2023-05-16T16:05:47.602Z,37.69
2023-05-16T16:08:11.359Z,37.65
2023-05-16T16:10:56.083Z,37.59
2023-05-16T16:13:22.319Z,37.75
2023-05-16T16:15:55.463Z,37.45
2023-05-16T16:18:21.918Z,37.58
2023-05-16T16:20:49.661Z,37.39
2023-05-16T16:23:13.657Z,37.47
2023-05-16T16:25:39.789Z,37.29
2023-05-16T16:28:03.982Z,37.34
2023-05-16T16:30:27.784Z,37.42
2023-05-16T16:32:52.594Z,37.37
2023-05-16T16:34:01.856Z,37.39
2023-05-16T16:36:26.243Z,37.42
2023-05-16T16:38:51.510Z,37.48
2023-05-16T16:41:16.076Z,37.54
2023-05-16T16:42:26.696Z,37.51
2023-05-16T16:43:39.632Z,37.56
2023-05-16T16:44:48.633Z,37.55
2023-05-16T16:45:57.821Z,37.56
2023-05-16T16:48:23.826Z,37.63
2023-05-16T16:51:06.998Z,37.59
2023-05-16T16:53:31.948Z,37.64
2023-05-16T16:54:41.807Z,37.61
2023-05-16T16:57:06.342Z,37.50
2023-05-16T16:58:15.511Z,37.49
2023-05-16T17:00:40.376Z,37.62
2023-05-16T17:03:08.346Z,37.60
2023-05-16T17:05:32.098Z,37.63
2023-05-16T17:07:57.215Z,37.67
2023-05-16T17:09:06.499Z,37.65
2023-05-16T17:11:31.189Z,37.73
2023-05-16T17:13:59.453Z,37.75
2023-05-16T17:16:24.684Z,37.69
2023-05-16T17:17:34.246Z,37.72
2023-05-16T17:19:58.948Z,37.65
2023-05-16T17:22:24.062Z,37.70
2023-05-16T17:23:33.171Z,37.64
2023-05-16T17:25:57.153Z,37.89
2023-05-16T17:28:21.867Z,37.82
2023-05-16T17:30:46.529Z,37.85
2023-05-16T17:31:56.483Z,37.94
2023-05-16T17:33:06.031Z,37.89
2023-05-16T17:34:15.271Z,37.95
2023-05-16T17:35:25.304Z,38.00
2023-05-16T17:37:51.860Z,38.13
2023-05-16T17:40:18.354Z,38.32
2023-05-16T17:42:44.339Z,38.36
2023-05-16T17:43:54.211Z,38.25
2023-05-16T17:46:20.197Z,38.34
2023-05-16T17:48:44.743Z,38.39
2023-05-16T17:51:09.111Z,38.47
2023-05-16T17:52:21.562Z,38.46
2023-05-16T17:53:30.131Z,38.48
2023-05-16T17:54:38.871Z,38.44
2023-05-16T17:55:49.177Z,38.49
2023-05-16T17:58:15.428Z,38.66
2023-05-16T18:00:42.046Z,38.62
2023-05-16T18:01:51.771Z,38.67
2023-05-16T18:03:01.574Z,38.63
2023-05-16T18:05:25.177Z,38.77
2023-05-16T18:07:53.860Z,38.85
2023-05-16T18:10:21.014Z,38.84
2023-05-16T18:12:45.989Z,38.78
2023-05-16T18:13:54.936Z,38.77
2023-05-16T18:15:05.314Z,38.82
2023-05-16T18:17:29.212Z,39.02
2023-05-16T18:19:53.949Z,38.97
2023-05-16T18:21:05.273Z,38.96
2023-05-16T18:22:14.934Z,38.99
2023-05-16T18:24:39.767Z,39.01
2023-05-16T18:27:04.640Z,39.07
2023-05-16T18:29:29.698Z,39.07
2023-05-16T18:31:56.765Z,39.14
2023-05-16T18:34:21.438Z,39.04
2023-05-16T18:35:30.643Z,39.09
2023-05-16T18:37:55.064Z,39.14
2023-05-16T18:40:19.311Z,39.22
2023-05-16T18:42:45.123Z,39.23
2023-05-16T18:45:09.673Z,39.35
2023-05-16T18:47:33.848Z,39.32
2023-05-16T18:49:59.852Z,39.40
2023-05-16T18:51:09.572Z,39.47
2023-05-16T18:52:19.337Z,39.48
2023-05-16T18:53:28.005Z,39.43
2023-05-16T18:54:38.355Z,39.66
2023-05-16T18:57:06.340Z,39.71
2023-05-16T18:59:31.976Z,39.87
2023-05-16T19:01:56.095Z,40.03
2023-05-16T19:03:05.199Z,39.94
2023-05-16T19:05:29.565Z,40.08
2023-05-16T19:06:39.810Z,40.12
2023-05-16T19:09:03.807Z,40.21
2023-05-16T19:11:29.291Z,40.39
2023-05-16T19:12:38.892Z,40.45
2023-05-16T19:15:02.616Z,40.56
2023-05-16T19:17:26.818Z,40.69
2023-05-16T19:19:52.569Z,40.87
2023-05-16T19:22:16.424Z,40.95
2023-05-16T19:24:40.071Z,41.09
2023-05-16T19:27:04.477Z,41.21
2023-05-16T19:29:30.094Z,41.27
2023-05-16T19:30:40.172Z,41.31
2023-05-16T19:31:48.953Z,41.42
2023-05-16T19:34:14.184Z,41.55
2023-05-16T19:36:38.108Z,41.71
2023-05-16T19:39:02.488Z,41.79
2023-05-16T19:41:27.421Z,41.92
2023-05-16T19:42:37.454Z,41.94
2023-05-16T19:43:46.594Z,42.00
2023-05-16T19:46:10.801Z,42.17
2023-05-16T19:48:36.132Z,42.32
2023-05-16T19:51:00.958Z,42.63
2023-05-16T19:53:28.007Z,42.61
2023-05-16T19:55:53.298Z,42.68
2023-05-16T19:57:02.835Z,42.73
2023-05-16T19:59:26.557Z,42.85
2023-05-16T20:01:53.103Z,42.88
2023-05-16T20:04:17.860Z,43.07
2023-05-16T20:06:41.899Z,43.10
2023-05-16T20:09:10.803Z,43.23
2023-05-16T20:10:21.920Z,43.21
2023-05-16T20:12:45.516Z,43.32
2023-05-16T20:15:12.112Z,43.39
2023-05-16T20:17:36.935Z,43.37
2023-05-16T20:20:01.498Z,43.42
2023-05-16T20:22:26.410Z,43.40
2023-05-16T20:24:52.342Z,43.47
2023-05-16T20:27:17.148Z,43.52
2023-05-16T20:29:41.575Z,43.51
2023-05-16T20:32:06.504Z,43.54
2023-05-16T20:34:33.413Z,43.60
2023-05-16T20:36:58.585Z,43.63
2023-05-16T20:39:23.774Z,43.67
2023-05-16T20:41:48.888Z,43.81
2023-05-16T20:44:15.056Z,43.94
2023-05-16T20:46:41.717Z,44.03
2023-05-16T20:49:06.635Z,44.05
2023-05-16T20:51:32.813Z,44.11
2023-05-16T20:53:56.318Z,44.20
2023-05-16T20:56:21.967Z,44.18
2023-05-16T20:57:43.698Z,44.20
2023-05-16T20:58:52.645Z,44.28
2023-05-16T21:01:17.197Z,44.29
2023-05-16T21:02:27.920Z,44.38
2023-05-16T21:04:52.835Z,44.62
2023-05-16T21:07:17.297Z,44.58
2023-05-16T21:09:44.117Z,44.75
2023-05-16T21:12:10.115Z,44.78
2023-05-16T21:14:34.607Z,44.86
2023-05-16T21:16:58.039Z,44.96
2023-05-16T21:19:23.437Z,44.87
2023-05-16T21:21:47.246Z,44.82
2023-05-16T21:22:56.367Z,44.86
2023-05-16T21:24:06.827Z,44.79
2023-05-16T21:26:32.766Z,44.88
2023-05-16T21:28:57.150Z,44.95
2023-05-16T21:31:23.668Z,44.98
2023-05-16T21:32:33.322Z,44.98
2023-05-16T21:35:00.536Z,44.98
2023-05-16T21:36:09.421Z,44.94
2023-05-16T21:37:18.380Z,45.05
2023-05-16T21:39:42.151Z,45.08
2023-05-16T21:42:10.646Z,45.19
2023-05-16T21:44:35.248Z,45.16
2023-05-16T21:45:44.405Z,45.19
2023-05-16T21:46:54.918Z,45.19
2023-05-16T21:48:03.933Z,45.26
2023-05-16T21:50:28.115Z,45.28
2023-05-16T21:52:53.357Z,45.29
2023-05-16T21:54:03.616Z,45.37
2023-05-16T21:55:13.918Z,45.30
2023-05-16T21:56:27.391Z,45.33
2023-05-16T21:58:51.303Z,45.40
2023-05-16T22:01:17.334Z,45.53
2023-05-16T22:02:27.002Z,45.53
2023-05-16T22:04:52.266Z,45.54
2023-05-16T22:06:01.810Z,45.56
2023-05-16T22:07:11.827Z,45.59
2023-05-16T22:09:36.245Z,45.59
2023-05-16T22:12:00.617Z,45.63
2023-05-16T22:13:10.996Z,45.67
2023-05-16T22:14:22.211Z,45.69
2023-05-16T22:15:31.356Z,45.70
2023-05-16T22:17:58.020Z,45.81
2023-05-16T22:20:23.599Z,45.83
2023-05-16T22:21:32.674Z,45.81
2023-05-16T22:22:41.551Z,45.87
2023-05-16T22:25:09.750Z,46.03
2023-05-16T22:27:38.800Z,46.09
2023-05-16T22:30:04.308Z,46.17
2023-05-16T22:32:29.232Z,46.30
2023-05-16T22:33:38.304Z,46.27
2023-05-16T22:34:47.599Z,46.31
2023-05-16T22:35:56.176Z,46.36
2023-05-16T22:38:23.498Z,46.53
2023-05-16T22:40:48.915Z,46.68
2023-05-16T22:43:16.534Z,46.76
2023-05-16T22:44:25.993Z,46.77
2023-05-16T22:46:49.286Z,46.69
2023-05-16T22:47:58.506Z,46.69
2023-05-16T22:50:22.414Z,46.76
2023-05-16T22:52:48.159Z,46.76
2023-05-16T22:53:57.879Z,46.74
2023-05-16T22:56:24.482Z,46.76
2023-05-16T22:57:35.113Z,46.69
2023-05-16T22:58:44.503Z,46.75
2023-05-16T23:01:08.514Z,46.70
2023-05-16T23:02:17.876Z,46.74
2023-05-16T23:04:44.943Z,46.75
2023-05-16T23:07:10.438Z,46.70
2023-05-16T23:08:22.213Z,46.75
2023-05-16T23:10:45.645Z,46.75
2023-05-16T23:13:10.289Z,46.76
2023-05-16T23:15:34.778Z,46.86
2023-05-16T23:16:43.678Z,46.79
2023-05-16T23:19:09.384Z,46.82
2023-05-16T23:20:18.365Z,46.82
2023-05-16T23:21:28.057Z,46.91
2023-05-16T23:22:37.689Z,46.83
2023-05-16T23:25:02.911Z,46.62
2023-05-16T23:27:29.029Z,46.63
2023-05-16T23:29:52.935Z,46.56
2023-05-16T23:32:39.705Z,46.60
2023-05-16T23:35:05.323Z,46.51
2023-05-16T23:36:14.576Z,46.51
2023-05-16T23:38:45.073Z,46.62
2023-05-16T23:41:28.606Z,46.60
2023-05-16T23:43:54.782Z,46.63
2023-05-16T23:46:19.432Z,46.64
2023-05-16T23:47:28.888Z,46.55
2023-05-16T23:48:40.514Z,46.68
2023-05-16T23:49:49.502Z,46.61
2023-05-16T23:52:13.805Z,46.71
2023-05-16T23:54:41.061Z,46.76
2023-05-16T23:57:05.527Z,46.67
2023-05-16T23:58:14.542Z,46.68
